If you wish to contribute or participate in the discussions about articles you are invited to join SKYbrary as a registered user

 Actions

María Dolores Airport

From SKYbrary Wiki

SCGE
Airport
ICAO: SCGE – IATA: LSQ
Summary
Name María Dolores Airport
Region South America and Caribbean
Territory Chile CL.gif
Location Los Angeles, Bio-Bio
Serving Los Angeles
Elevation 113.995 m
374 ft
374 ft113.995 m
Type small airport
Coordinates 37° 24' 6.23" S, 72° 25' 31.60" W
Runways
Designator Length Width Surface ROPS
18/36 1700 m5,577.428 ft
30 m98.425 ft
ASP /


METAR
Observation SCGE 210200Z 03004KT 9999 BKN020 09/08 Q1026
Station MARIA DOLORES
Date/Time 21 May 2019 02:00:00
Wind direction 30°
Wind speed 04 kts
Lowest cloud amount broken clouds
Temperature 9°C
Dew point 8°C
Humidity 93%
QNH 1026 hPa
Weather condition n/a

Airport to the northwest of Los Angeles, Bio Bio, Chile.

Climatology

Mediterranean climate (Köppen climate classification Csb)

Maps

Terrain

Loading map...

Airport Layout

Loading map...


Accidents & Serious Incidents at or in vicinity of SCGE

None on SKYbrary